createdAt,value
2023-03-24T00:01:21.228Z,87.30
2023-03-24T00:03:52.420Z,87.50
2023-03-24T00:06:22.724Z,87.40
2023-03-24T00:08:51.518Z,87.40
2023-03-24T00:11:21.411Z,87.50
2023-03-24T00:13:51.400Z,87.20
2023-03-24T00:16:21.897Z,87.30
2023-03-24T00:18:53.903Z,87.40
2023-03-24T00:21:24.633Z,87.30
2023-03-24T00:23:55.395Z,87.40
2023-03-24T00:26:25.036Z,87.20
2023-03-24T00:28:55.605Z,87.50
2023-03-24T00:31:24.743Z,87.30
2023-03-24T00:33:53.973Z,87.40
2023-03-24T00:36:24.599Z,87.30
2023-03-24T00:38:54.033Z,87.40
2023-03-24T00:41:24.939Z,87.30
2023-03-24T00:43:58.418Z,87.50
2023-03-24T00:46:30.785Z,87.60
2023-03-24T00:49:03.774Z,87.90
2023-03-24T00:51:34.367Z,87.80
2023-03-24T00:54:03.361Z,87.60
2023-03-24T00:56:33.405Z,87.80
2023-03-24T00:59:03.523Z,87.70
2023-03-24T01:01:35.604Z,87.70
2023-03-24T01:04:07.069Z,87.80
2023-03-24T01:06:37.712Z,87.80
2023-03-24T01:09:07.382Z,87.60
2023-03-24T01:11:40.037Z,87.80
2023-03-24T01:14:12.077Z,87.80
2023-03-24T01:16:40.907Z,87.70
2023-03-24T01:19:09.910Z,87.50
2023-03-24T01:21:39.089Z,87.50
2023-03-24T01:24:08.409Z,87.70
2023-03-24T01:26:37.371Z,87.90
2023-03-24T01:29:06.102Z,88.10
2023-03-24T01:31:36.634Z,88.10
2023-03-24T01:34:05.494Z,88.10
2023-03-24T01:36:33.921Z,88.40
2023-03-24T01:39:02.341Z,88.60
2023-03-24T01:41:35.031Z,88.60
2023-03-24T01:44:23.832Z,88.60
2023-03-24T01:46:53.668Z,88.60
2023-03-24T01:49:22.840Z,88.60
2023-03-24T01:51:55.503Z,88.70
2023-03-24T01:54:27.546Z,88.70
2023-03-24T01:57:00.423Z,88.80
2023-03-24T01:59:31.368Z,89.00
2023-03-24T02:02:04.011Z,88.80
2023-03-24T02:04:35.496Z,88.70
2023-03-24T02:07:09.742Z,88.60
2023-03-24T02:09:38.253Z,88.60
2023-03-24T02:12:06.967Z,88.70
2023-03-24T02:14:35.537Z,88.70
2023-03-24T02:17:33.895Z,88.80
2023-03-24T02:20:33.771Z,89.00
2023-03-24T02:23:31.141Z,89.00
2023-03-24T02:26:33.058Z,89.00
2023-03-24T02:29:18.783Z,89.40
2023-03-24T02:32:10.588Z,89.60
2023-03-24T02:35:11.843Z,89.90
2023-03-24T02:38:20.549Z,90.00
2023-03-24T02:40:58.746Z,90.00
2023-03-24T02:43:39.220Z,90.20
2023-03-24T02:46:14.914Z,90.20
2023-03-24T02:48:55.495Z,90.20
2023-03-24T02:51:31.579Z,90.20
2023-03-24T02:54:08.463Z,90.20
2023-03-24T02:56:40.735Z,90.20
2023-03-24T02:59:13.106Z,90.30
2023-03-24T03:01:45.611Z,90.30
2023-03-24T03:04:17.975Z,90.20
2023-03-24T03:06:52.593Z,90.40
2023-03-24T03:09:22.792Z,90.40
2023-03-24T03:11:57.547Z,90.40
2023-03-24T03:14:30.750Z,90.40
2023-03-24T03:17:02.671Z,90.50
2023-03-24T03:19:34.552Z,90.50
2023-03-24T03:22:06.187Z,90.50
2023-03-24T03:24:39.347Z,90.50
2023-03-24T03:27:14.844Z,90.60
2023-03-24T03:29:48.896Z,90.70
2023-03-24T03:32:24.933Z,90.80
2023-03-24T03:34:58.508Z,90.80
2023-03-24T03:37:33.129Z,90.70
2023-03-24T03:40:06.301Z,90.80
2023-03-24T03:42:36.301Z,90.80
2023-03-24T03:45:05.171Z,90.90
2023-03-24T03:47:34.577Z,90.90
2023-03-24T03:50:04.593Z,90.80
2023-03-24T03:52:33.198Z,91.00
2023-03-24T03:55:01.722Z,91.00
2023-03-24T03:57:30.397Z,91.00
2023-03-24T04:00:07.969Z,90.90
2023-03-24T04:02:45.150Z,90.90
2023-03-24T04:05:27.736Z,90.90
2023-03-24T04:08:23.307Z,90.80
2023-03-24T04:11:23.568Z,90.80
2023-03-24T04:14:03.627Z,90.80
2023-03-24T04:16:45.859Z,90.80
2023-03-24T04:19:25.519Z,90.90
2023-03-24T04:22:14.630Z,90.90
2023-03-24T04:24:51.060Z,90.90
2023-03-24T04:27:27.578Z,90.90
2023-03-24T04:30:08.494Z,90.80
2023-03-24T04:32:46.493Z,90.80
2023-03-24T04:35:26.480Z,90.80
2023-03-24T04:37:56.430Z,90.80
2023-03-24T04:40:26.529Z,90.70
2023-03-24T04:42:56.447Z,90.80
2023-03-24T04:45:25.834Z,90.80
2023-03-24T04:47:58.844Z,90.80
2023-03-24T04:50:32.241Z,90.80
2023-03-24T04:53:00.644Z,90.80
2023-03-24T04:55:49.419Z,90.80
2023-03-24T04:58:18.135Z,90.80
2023-03-24T05:00:47.130Z,90.80
2023-03-24T05:03:17.877Z,90.80
2023-03-24T05:05:48.307Z,90.80
2023-03-24T05:08:17.636Z,90.80
2023-03-24T05:10:46.658Z,90.90
2023-03-24T05:13:16.226Z,91.00
2023-03-24T05:15:44.854Z,90.90
2023-03-24T05:18:13.367Z,91.10
2023-03-24T05:20:43.069Z,91.20
2023-03-24T05:23:11.558Z,91.40
2023-03-24T05:25:39.976Z,91.30
2023-03-24T05:28:08.220Z,91.50
2023-03-24T05:30:36.629Z,91.40
2023-03-24T05:33:05.033Z,91.40
2023-03-24T05:35:33.369Z,91.40
2023-03-24T05:38:03.083Z,91.50
2023-03-24T05:40:31.456Z,91.60
2023-03-24T05:42:59.746Z,91.60
2023-03-24T05:45:29.568Z,91.60
2023-03-24T05:47:58.052Z,91.70
2023-03-24T05:50:26.552Z,91.60
2023-03-24T05:52:54.813Z,91.60
2023-03-24T05:55:25.251Z,91.60
2023-03-24T05:57:54.041Z,91.60
2023-03-24T06:00:23.541Z,91.70
2023-03-24T06:02:52.356Z,91.70
2023-03-24T06:05:21.107Z,91.70
2023-03-24T06:07:49.529Z,91.70
2023-03-24T06:10:18.538Z,91.70
2023-03-24T06:12:48.272Z,91.90
2023-03-24T06:15:17.589Z,91.70
2023-03-24T06:17:46.288Z,91.70
2023-03-24T06:20:16.279Z,91.70
2023-03-24T06:22:46.161Z,91.80
2023-03-24T06:25:16.869Z,91.70
2023-03-24T06:27:47.217Z,91.70
2023-03-24T06:30:16.890Z,91.80
2023-03-24T06:32:46.935Z,91.80
2023-03-24T06:35:15.945Z,91.80
2023-03-24T06:37:44.914Z,91.80
2023-03-24T06:40:16.354Z,91.80
2023-03-24T06:42:45.000Z,91.90
2023-03-24T06:45:14.808Z,91.90
2023-03-24T06:47:43.124Z,91.90
2023-03-24T06:50:12.414Z,91.70
2023-03-24T06:52:41.377Z,91.60
2023-03-24T06:55:10.453Z,91.60
2023-03-24T06:57:38.766Z,91.50
2023-03-24T07:00:10.389Z,91.50
2023-03-24T07:02:40.518Z,91.40
2023-03-24T07:05:11.074Z,91.30
2023-03-24T07:10:14.183Z,91.30
2023-03-24T07:12:42.535Z,91.10
2023-03-24T07:15:11.609Z,91.00
2023-03-24T07:17:42.742Z,91.00
2023-03-24T07:20:11.640Z,90.60
2023-03-24T07:22:39.959Z,90.50
2023-03-24T07:25:09.022Z,90.30
2023-03-24T07:27:39.455Z,90.30
2023-03-24T07:30:10.345Z,90.20
2023-03-24T07:32:46.360Z,90.20
2023-03-24T07:35:14.772Z,90.00
2023-03-24T07:37:43.766Z,89.50
2023-03-24T07:40:13.868Z,89.70
2023-03-24T07:42:43.158Z,88.60
2023-03-24T07:45:13.140Z,88.60
2023-03-24T07:47:45.457Z,88.30
2023-03-24T07:50:15.173Z,87.80
2023-03-24T07:52:48.079Z,87.10
2023-03-24T07:55:16.865Z,86.20
2023-03-24T07:57:48.293Z,85.20
2023-03-24T08:00:18.248Z,84.60
2023-03-24T08:02:49.638Z,83.50
2023-03-24T08:05:19.612Z,83.00
2023-03-24T08:07:53.598Z,82.70
2023-03-24T08:10:23.358Z,82.70
2023-03-24T08:12:52.047Z,82.60
2023-03-24T08:15:20.545Z,82.30
2023-03-24T08:17:51.891Z,82.50
2023-03-24T08:20:21.400Z,82.60
2023-03-24T08:22:50.840Z,81.80
2023-03-24T08:25:20.365Z,81.90
2023-03-24T08:27:49.058Z,81.70
2023-03-24T08:30:20.242Z,81.60
2023-03-24T08:32:52.194Z,81.90
2023-03-24T08:35:23.235Z,82.20
2023-03-24T08:37:51.745Z,81.00
2023-03-24T08:40:23.437Z,81.30
2023-03-24T08:42:53.663Z,80.70
2023-03-24T08:45:24.041Z,80.40
2023-03-24T08:47:55.073Z,79.80
2023-03-24T08:50:25.859Z,79.40
2023-03-24T08:52:56.331Z,79.70
2023-03-24T08:55:25.880Z,79.20
2023-03-24T08:57:54.729Z,79.30
2023-03-24T09:00:23.564Z,79.50
2023-03-24T09:02:55.014Z,79.00
2023-03-24T09:05:40.885Z,78.00
2023-03-24T09:08:12.946Z,77.90
2023-03-24T09:10:53.260Z,76.30
2023-03-24T09:13:22.381Z,76.80
2023-03-24T09:15:52.557Z,76.50
2023-03-24T09:18:23.577Z,76.20
2023-03-24T09:20:52.421Z,75.20
2023-03-24T09:23:21.624Z,75.00
2023-03-24T09:25:51.031Z,75.50
2023-03-24T09:28:19.731Z,75.80
2023-03-24T09:30:48.663Z,74.60
2023-03-24T09:33:17.310Z,74.80
2023-03-24T09:35:47.016Z,74.30
2023-03-24T09:38:15.380Z,73.80
2023-03-24T09:40:44.229Z,74.40
2023-03-24T09:43:21.659Z,74.20
2023-03-24T09:45:52.538Z,73.10
2023-03-24T09:48:27.341Z,73.30
2023-03-24T09:51:01.331Z,71.90
2023-03-24T09:53:37.062Z,71.90
2023-03-24T09:56:13.324Z,71.90
2023-03-24T09:58:42.737Z,69.70
2023-03-24T10:01:15.999Z,68.20
2023-03-24T10:03:45.099Z,68.80
2023-03-24T10:06:21.890Z,68.90
2023-03-24T10:08:55.424Z,70.10
2023-03-24T10:11:30.165Z,69.70
2023-03-24T10:14:14.485Z,69.60
2023-03-24T10:16:50.935Z,69.70
2023-03-24T10:19:29.613Z,69.80
2023-03-24T10:22:07.401Z,70.00
2023-03-24T10:24:42.312Z,68.50
2023-03-24T10:27:17.414Z,68.00
2023-03-24T10:29:47.146Z,68.00
2023-03-24T10:32:22.125Z,67.80
2023-03-24T10:34:55.912Z,67.50
2023-03-24T10:37:25.614Z,67.50
2023-03-24T10:39:53.963Z,66.90
2023-03-24T10:42:29.816Z,66.40
2023-03-24T10:44:58.365Z,66.20
2023-03-24T10:47:30.746Z,65.80
2023-03-24T10:50:14.323Z,64.70
2023-03-24T10:52:48.998Z,64.50
2023-03-24T10:55:19.218Z,63.00
2023-03-24T10:57:50.858Z,63.20
2023-03-24T11:00:27.022Z,62.90
2023-03-24T11:02:58.858Z,62.50
2023-03-24T11:05:33.316Z,62.00
2023-03-24T11:08:16.514Z,61.70
2023-03-24T11:10:45.252Z,62.50
2023-03-24T11:13:19.769Z,62.80
2023-03-24T11:15:56.944Z,61.20
2023-03-24T11:18:25.646Z,60.20
2023-03-24T11:20:58.316Z,60.20
2023-03-24T11:23:32.316Z,59.70
2023-03-24T11:26:09.345Z,60.20
2023-03-24T11:28:41.269Z,59.10
2023-03-24T11:31:11.893Z,57.80
2023-03-24T11:33:47.670Z,58.00
2023-03-24T11:36:40.284Z,58.60
2023-03-24T11:39:14.805Z,58.30
2023-03-24T11:41:45.668Z,57.40
2023-03-24T11:44:21.004Z,58.20
2023-03-24T11:46:53.469Z,58.40
2023-03-24T11:49:28.919Z,57.80
2023-03-24T11:51:57.569Z,56.80
2023-03-24T11:54:33.003Z,56.70
2023-03-24T11:57:05.676Z,57.40
2023-03-24T11:59:38.737Z,56.40
2023-03-24T12:02:17.401Z,56.60
2023-03-24T12:05:10.588Z,56.10
2023-03-24T12:08:08.077Z,55.80
2023-03-24T12:10:51.176Z,55.70
2023-03-24T12:13:33.018Z,55.70
2023-03-24T12:16:20.932Z,55.90
2023-03-24T12:19:21.695Z,53.30
2023-03-24T12:21:58.435Z,53.70
2023-03-24T12:24:44.059Z,54.20
2023-03-24T12:27:26.522Z,54.10
2023-03-24T12:30:02.634Z,54.00
2023-03-24T12:32:48.081Z,52.80
2023-03-24T12:35:52.090Z,52.40
2023-03-24T12:38:40.130Z,52.60
2023-03-24T12:41:25.118Z,52.50
2023-03-24T12:44:12.256Z,51.90
2023-03-24T12:46:49.339Z,52.50
2023-03-24T12:49:42.534Z,52.00
2023-03-24T12:52:29.412Z,51.90
2023-03-24T12:55:05.146Z,51.30
2023-03-24T12:57:39.831Z,51.40
2023-03-24T13:00:17.297Z,51.10
2023-03-24T13:02:52.532Z,50.50
2023-03-24T13:05:26.657Z,50.40
2023-03-24T13:07:59.026Z,50.00
2023-03-24T13:10:29.806Z,50.00
2023-03-24T13:13:03.598Z,50.10
2023-03-24T13:15:40.057Z,49.90
2023-03-24T13:18:20.950Z,48.80
2023-03-24T13:20:53.802Z,48.60
2023-03-24T13:23:33.919Z,48.90
2023-03-24T13:26:12.151Z,47.10
2023-03-24T13:28:47.730Z,47.40
2023-03-24T13:31:18.970Z,46.70
2023-03-24T13:33:47.790Z,46.50
2023-03-24T13:36:32.044Z,46.60
2023-03-24T13:39:05.551Z,46.20
2023-03-24T13:41:38.207Z,46.50
2023-03-24T13:44:16.460Z,43.60
2023-03-24T13:47:21.058Z,42.70
2023-03-24T13:49:59.954Z,41.90
2023-03-24T13:52:33.775Z,41.00
2023-03-24T13:55:09.165Z,38.70
2023-03-24T13:57:42.563Z,38.60
2023-03-24T14:00:21.462Z,37.30
2023-03-24T14:02:52.742Z,36.60
2023-03-24T14:05:36.423Z,33.90
2023-03-24T14:08:17.063Z,34.30
2023-03-24T14:10:47.333Z,35.00
2023-03-24T14:13:36.730Z,35.20
2023-03-24T14:16:37.992Z,34.70
2023-03-24T14:19:23.656Z,35.40
2023-03-24T14:22:00.382Z,35.40
2023-03-24T14:24:31.431Z,36.50
2023-03-24T14:26:59.946Z,37.40
2023-03-24T14:29:43.230Z,37.80
2023-03-24T14:32:20.439Z,38.20
2023-03-24T14:34:57.057Z,38.60
2023-03-24T14:37:27.289Z,38.90
2023-03-24T14:39:58.138Z,39.70
2023-03-24T14:43:11.926Z,39.50
2023-03-24T14:46:00.009Z,39.70
2023-03-24T14:48:39.459Z,40.20
2023-03-24T14:51:37.533Z,40.60
2023-03-24T14:54:08.459Z,40.80
2023-03-24T14:56:40.592Z,41.00
2023-03-24T14:59:16.957Z,41.00
2023-03-24T15:01:49.763Z,41.10
2023-03-24T15:04:18.239Z,42.20
2023-03-24T15:06:50.657Z,42.00
2023-03-24T15:09:19.868Z,42.30
2023-03-24T15:11:50.199Z,42.40
2023-03-24T15:14:28.545Z,42.80
2023-03-24T15:16:59.736Z,42.90
2023-03-24T15:19:32.709Z,43.40
2023-03-24T15:22:04.092Z,43.80
2023-03-24T15:24:35.538Z,44.20
2023-03-24T15:27:27.726Z,44.70
2023-03-24T15:29:59.183Z,45.00
2023-03-24T15:32:32.239Z,45.20
2023-03-24T15:35:05.797Z,45.50
2023-03-24T15:37:40.576Z,45.80
2023-03-24T15:40:37.043Z,46.00
2023-03-24T15:43:08.030Z,46.50
2023-03-24T15:45:38.827Z,46.90
2023-03-24T15:48:10.097Z,47.20
2023-03-24T15:50:40.139Z,47.30
2023-03-24T15:53:25.909Z,47.70
2023-03-24T15:56:08.718Z,48.00
2023-03-24T15:58:48.928Z,48.40
2023-03-24T16:01:20.132Z,48.70
2023-03-24T16:03:52.123Z,48.90
2023-03-24T16:06:30.221Z,49.20
2023-03-24T16:09:02.609Z,49.70
2023-03-24T16:11:31.354Z,50.20
2023-03-24T16:14:00.288Z,50.40
2023-03-24T16:16:30.163Z,50.60
2023-03-24T16:18:59.554Z,51.10
2023-03-24T16:21:29.622Z,51.60
2023-03-24T16:24:00.689Z,52.20
2023-03-24T16:26:31.128Z,52.30
2023-03-24T16:29:04.680Z,52.80
2023-03-24T16:31:35.606Z,53.10
2023-03-24T16:34:03.997Z,53.50
2023-03-24T16:36:32.500Z,54.00
2023-03-24T16:39:03.192Z,54.20
2023-03-24T16:41:31.478Z,54.40
2023-03-24T16:43:59.779Z,54.70
2023-03-24T16:46:33.572Z,55.20
2023-03-24T16:49:03.030Z,55.30
2023-03-24T16:51:31.335Z,55.60
2023-03-24T16:54:01.320Z,55.70
2023-03-24T16:56:30.297Z,55.70
2023-03-24T16:58:59.702Z,55.90
2023-03-24T17:01:33.791Z,56.20
2023-03-24T17:04:04.017Z,56.40
2023-03-24T17:06:33.956Z,56.50
2023-03-24T17:09:06.004Z,56.60
2023-03-24T17:11:36.989Z,56.70
2023-03-24T17:14:08.412Z,56.70
2023-03-24T17:16:38.850Z,56.90
2023-03-24T17:19:07.587Z,57.10
2023-03-24T17:21:38.305Z,57.00
2023-03-24T17:24:10.721Z,57.20
2023-03-24T17:26:39.434Z,57.20
2023-03-24T17:29:07.928Z,57.40
2023-03-24T17:31:36.316Z,57.30
2023-03-24T17:34:18.693Z,57.50
2023-03-24T17:36:51.336Z,57.60
2023-03-24T17:39:22.133Z,57.70
2023-03-24T17:41:50.495Z,57.80
2023-03-24T17:44:18.800Z,57.80
2023-03-24T17:46:47.156Z,58.00
2023-03-24T17:49:15.563Z,58.00
2023-03-24T17:51:43.870Z,58.00
2023-03-24T17:54:13.361Z,58.00
2023-03-24T17:56:43.329Z,58.20
2023-03-24T17:59:11.643Z,58.30
2023-03-24T18:01:40.501Z,58.30
2023-03-24T18:04:09.179Z,58.40
2023-03-24T18:06:38.628Z,58.40
2023-03-24T18:09:08.761Z,58.70
2023-03-24T18:11:37.574Z,58.60
2023-03-24T18:14:09.236Z,58.60
2023-03-24T18:16:39.245Z,58.70
2023-03-24T18:19:07.848Z,58.60
2023-03-24T18:21:36.150Z,58.70
2023-03-24T18:24:04.677Z,58.70
2023-03-24T18:26:33.697Z,58.80
2023-03-24T18:29:01.981Z,58.90
2023-03-24T18:31:32.820Z,58.90
2023-03-24T18:34:04.219Z,59.00
2023-03-24T18:36:32.576Z,59.10
2023-03-24T18:39:03.682Z,59.30
2023-03-24T18:41:32.109Z,59.30
2023-03-24T18:44:01.419Z,59.40
2023-03-24T18:46:31.457Z,59.50
2023-03-24T18:48:59.985Z,59.60
2023-03-24T18:51:34.036Z,59.70
2023-03-24T18:54:02.621Z,59.80
2023-03-24T18:56:31.236Z,59.80
2023-03-24T18:58:59.623Z,59.90
2023-03-24T19:01:30.314Z,60.00
2023-03-24T19:04:00.927Z,60.10
2023-03-24T19:06:31.217Z,61.10
2023-03-24T19:09:00.533Z,60.30
2023-03-24T19:11:28.952Z,60.50
2023-03-24T19:13:58.085Z,60.60
2023-03-24T19:16:26.493Z,60.70
2023-03-24T19:18:57.905Z,60.70
2023-03-24T19:21:27.816Z,60.80
2023-03-24T19:23:57.172Z,60.90
2023-03-24T19:26:25.978Z,60.90
2023-03-24T19:28:54.447Z,60.90
2023-03-24T19:31:22.784Z,61.00
2023-03-24T19:33:52.227Z,61.10
2023-03-24T19:36:20.648Z,61.20
2023-03-24T19:38:50.993Z,62.20
2023-03-24T19:41:19.283Z,61.40
2023-03-24T19:43:47.635Z,61.40
2023-03-24T19:46:17.223Z,61.50
2023-03-24T19:48:45.604Z,61.60
2023-03-24T19:51:13.903Z,61.70
2023-03-24T19:53:42.182Z,61.70
2023-03-24T19:56:12.138Z,61.90
2023-03-24T19:58:40.478Z,62.00
2023-03-24T20:01:08.752Z,62.10
2023-03-24T20:03:38.032Z,62.20
2023-03-24T20:06:09.029Z,62.30
2023-03-24T20:08:37.443Z,62.30
2023-03-24T20:11:08.621Z,62.60
2023-03-24T20:13:38.344Z,62.70
2023-03-24T20:16:07.352Z,62.90
2023-03-24T20:18:35.950Z,63.00
2023-03-24T20:21:06.424Z,63.20
2023-03-24T20:23:34.727Z,63.30
2023-03-24T20:26:03.134Z,63.40
2023-03-24T20:28:31.528Z,63.50
2023-03-24T20:31:02.177Z,63.70
2023-03-24T20:33:31.181Z,63.80
2023-03-24T20:35:59.849Z,63.90
2023-03-24T20:38:28.749Z,64.00
2023-03-24T20:41:01.199Z,64.20
2023-03-24T20:43:34.981Z,64.30
2023-03-24T20:46:05.857Z,64.40
2023-03-24T20:48:34.418Z,64.70
2023-03-24T20:51:03.895Z,64.70
2023-03-24T20:53:35.065Z,64.70
2023-03-24T20:56:06.653Z,64.70
2023-03-24T20:58:35.968Z,64.80
2023-03-24T21:01:08.738Z,65.10
2023-03-24T21:03:37.968Z,65.40
2023-03-24T21:06:06.689Z,65.40
2023-03-24T21:08:35.017Z,65.50
2023-03-24T21:11:03.354Z,65.60
2023-03-24T21:13:37.448Z,65.50
2023-03-24T21:16:09.008Z,65.60
2023-03-24T21:18:38.018Z,65.70
2023-03-24T21:21:07.441Z,65.60
2023-03-24T21:23:39.252Z,65.60
2023-03-24T21:26:09.399Z,65.60
2023-03-24T21:28:37.678Z,65.60
2023-03-24T21:31:11.444Z,65.60
2023-03-24T21:33:41.054Z,65.60
2023-03-24T21:36:10.972Z,65.60
2023-03-24T21:38:40.197Z,65.60
2023-03-24T21:41:09.078Z,65.70
2023-03-24T21:43:37.498Z,65.80
2023-03-24T21:46:06.776Z,65.90
2023-03-24T21:48:40.182Z,65.80
2023-03-24T21:51:08.634Z,66.70
2023-03-24T21:53:36.975Z,65.90
2023-03-24T21:56:05.640Z,66.00
2023-03-24T21:58:34.947Z,66.10
2023-03-24T22:01:03.391Z,66.10
2023-03-24T22:03:34.571Z,66.20
2023-03-24T22:06:05.028Z,66.30
2023-03-24T22:08:33.705Z,66.30
2023-03-24T22:11:04.417Z,66.40
2023-03-24T22:13:34.586Z,66.40
2023-03-24T22:16:04.973Z,66.60
2023-03-24T22:18:35.446Z,66.70
2023-03-24T22:21:07.696Z,66.80
2023-03-24T22:23:38.163Z,66.90
2023-03-24T22:26:09.278Z,67.00
2023-03-24T22:28:38.243Z,67.10
2023-03-24T22:31:08.252Z,67.30
2023-03-24T22:33:36.708Z,67.40
2023-03-24T22:36:07.351Z,67.50
2023-03-24T22:38:36.063Z,67.60
2023-03-24T22:41:06.624Z,67.60
2023-03-24T22:43:36.389Z,68.00
2023-03-24T22:46:05.240Z,68.00
2023-03-24T22:48:33.545Z,68.20
2023-03-24T22:51:02.311Z,68.20
2023-03-24T22:53:32.246Z,68.30
2023-03-24T22:56:00.536Z,68.40
2023-03-24T22:58:28.985Z,68.60
2023-03-24T23:00:58.015Z,68.80
2023-03-24T23:03:26.516Z,68.80
2023-03-24T23:05:55.252Z,68.90
2023-03-24T23:08:24.945Z,68.90
2023-03-24T23:10:55.803Z,69.00
2023-03-24T23:13:25.417Z,69.00
2023-03-24T23:15:54.572Z,69.00
2023-03-24T23:18:22.933Z,69.10
2023-03-24T23:20:51.304Z,69.20
2023-03-24T23:23:19.603Z,69.30
2023-03-24T23:25:48.651Z,69.40
2023-03-24T23:28:18.682Z,69.50
2023-03-24T23:30:47.003Z,69.50
2023-03-24T23:33:15.377Z,69.60
2023-03-24T23:35:43.793Z,69.60
2023-03-24T23:38:12.177Z,69.60
2023-03-24T23:40:40.502Z,70.20
2023-03-24T23:43:08.830Z,70.20
2023-03-24T23:45:38.805Z,70.20
2023-03-24T23:48:08.138Z,70.30
2023-03-24T23:50:36.477Z,70.30
2023-03-24T23:53:04.808Z,70.40
2023-03-24T23:55:33.097Z,70.50
2023-03-24T23:58:01.940Z,70.60
